Time;durP1;ratioP1;P1;durP2;ratioP2;P2;SDS_P1;SDS_P2;PMS_P1;PMS_P2;Temp;Humidity;BMP_temperature;BMP_pressure;BME280_temperature;BME280_humidity;BME280_pressure;Samples;Min_cycle;Max_cycle;Signal;HPM_P1;HPM_P2
2022/05/08 00:02:17;;;;;;;72.57;54.60;;;20.30;59.60;;;;;;4942498;28;98668;-68
2022/05/08 00:04:43;;;;;;;74.78;56.10;;;20.30;59.60;;;;;;4941596;28;99420;-68
2022/05/08 00:07:08;;;;;;;71.78;54.85;;;20.30;59.60;;;;;;4946222;28;95446;-68
2022/05/08 00:09:34;;;;;;;73.22;55.88;;;20.30;59.60;;;;;;4941783;28;95499;-67
2022/05/08 00:12:00;;;;;;;72.88;55.85;;;20.30;59.50;;;;;;4927850;28;97011;-68
2022/05/08 00:14:26;;;;;;;70.50;54.10;;;20.30;59.40;;;;;;4944893;28;99823;-68
2022/05/08 00:16:51;;;;;;;74.57;56.60;;;20.30;59.60;;;;;;4942824;28;95632;-68
2022/05/08 00:19:17;;;;;;;73.75;55.72;;;20.30;59.60;;;;;;4944796;28;95805;-67
2022/05/08 00:21:43;;;;;;;76.57;57.95;;;20.20;59.40;;;;;;4938648;28;97281;-68
2022/05/08 00:24:09;;;;;;;73.03;55.83;;;20.30;59.50;;;;;;4938086;28;97001;-68
2022/05/08 00:26:35;;;;;;;75.05;55.67;;;20.20;59.50;;;;;;4945525;28;94812;-68
2022/05/08 00:29:01;;;;;;;73.07;56.22;;;20.20;59.50;;;;;;4940997;28;94614;-68
2022/05/08 00:31:27;;;;;;;76.63;56.75;;;20.20;59.60;;;;;;4943558;28;95568;-67
2022/05/08 00:33:53;;;;;;;76.70;57.25;;;20.20;59.40;;;;;;4946472;28;102302;-68
2022/05/08 00:36:19;;;;;;;76.40;57.42;;;20.20;59.50;;;;;;4947338;28;96512;-68
2022/05/08 00:38:45;;;;;;;72.57;55.78;;;20.20;59.50;;;;;;4939036;28;97619;-68
2022/05/08 00:41:10;;;;;;;72.47;55.95;;;20.20;59.70;;;;;;4927364;28;95833;-68
2022/05/08 00:43:40;;;;;;;72.80;55.33;;;20.20;59.70;;;;;;4945566;28;97245;-69
2022/05/08 00:46:08;;;;;;;72.82;56.00;;;20.20;59.70;;;;;;4954070;28;95175;-68
2022/05/08 00:48:34;;;;;;;74.68;57.28;;;20.20;59.60;;;;;;4948792;28;94863;-68
2022/05/08 00:51:03;;;;;;;72.93;54.83;;;20.20;59.70;;;;;;4944770;28;98712;-68
2022/05/08 00:53:41;;;;;;;71.63;54.60;;;20.10;59.70;;;;;;4942636;28;95523;-67
2022/05/08 00:56:10;;;;;;;73.72;56.63;;;20.10;59.70;;;;;;4944233;28;95622;-68
2022/05/08 00:58:37;;;;;;;71.63;55.42;;;20.10;59.50;;;;;;4943993;28;101727;-68
2022/05/08 01:01:04;;;;;;;73.88;56.15;;;20.10;59.80;;;;;;4941915;28;98043;-68
2022/05/08 01:03:31;;;;;;;74.25;56.20;;;20.10;59.60;;;;;;4939674;28;96993;-68
2022/05/08 01:05:57;;;;;;;71.40;54.75;;;20.10;59.70;;;;;;4948697;28;95195;-68
2022/05/08 01:08:25;;;;;;;71.03;54.60;;;20.10;59.80;;;;;;4939774;28;95153;-68
2022/05/08 01:10:52;;;;;;;71.55;54.95;;;20.10;59.70;;;;;;4925564;28;96602;-68
2022/05/08 01:13:18;;;;;;;70.95;54.80;;;20.10;59.80;;;;;;4939091;28;95624;-68
2022/05/08 01:15:46;;;;;;;73.28;55.58;;;20.10;59.70;;;;;;4945242;28;95208;-68
2022/05/08 01:18:14;;;;;;;70.32;54.70;;;20.10;59.80;;;;;;4949049;28;94317;-68
2022/05/08 01:20:44;;;;;;;70.57;54.10;;;20.10;59.70;;;;;;4938169;28;95279;-68
2022/05/08 01:23:11;;;;;;;71.20;55.22;;;20.10;59.70;;;;;;4945295;28;96362;-68
2022/05/08 01:25:45;;;;;;;71.88;55.83;;;20.00;59.70;;;;;;4945273;28;96715;-68
2022/05/08 01:28:11;;;;;;;72.00;55.90;;;20.10;59.70;;;;;;4946497;28;95260;-68
2022/05/08 01:30:39;;;;;;;72.70;55.53;;;20.00;59.70;;;;;;4950665;28;96051;-68
2022/05/08 01:33:05;;;;;;;70.90;55.10;;;20.00;59.70;;;;;;4948625;28;95254;-67
2022/05/08 01:35:31;;;;;;;72.95;54.72;;;20.00;59.70;;;;;;4946790;28;95190;-67
2022/05/08 01:37:56;;;;;;;69.97;54.75;;;20.00;59.70;;;;;;4950454;28;95166;-68
2022/05/08 01:40:22;;;;;;;69.90;54.92;;;20.00;59.70;;;;;;4935651;28;98417;-67
2022/05/08 01:42:47;;;;;;;69.75;54.15;;;20.00;59.80;;;;;;4940187;28;95092;-68
2022/05/08 01:45:13;;;;;;;70.35;54.90;;;20.00;59.80;;;;;;4942752;28;100636;-67
2022/05/08 01:50:23;;;;;;;67.90;53.72;;;19.90;59.80;;;;;;4941643;28;95991;-67
2022/05/08 01:52:50;;;;;;;70.20;54.45;;;19.90;59.80;;;;;;4948810;28;97004;-68
2022/05/08 01:55:16;;;;;;;69.40;54.05;;;20.00;60.00;;;;;;4945221;28;95974;-68
2022/05/08 01:57:41;;;;;;;69.07;54.45;;;19.90;59.70;;;;;;4949693;28;97384;-67
2022/05/08 02:00:07;;;;;;;69.38;53.67;;;20.00;59.90;;;;;;4939935;28;95614;-68
2022/05/08 02:02:33;;;;;;;68.60;53.88;;;19.90;59.80;;;;;;4952581;28;95977;-68
2022/05/08 02:05:00;;;;;;;70.25;54.15;;;19.90;59.80;;;;;;4941714;28;95368;-67
2022/05/08 02:07:26;;;;;;;72.38;54.53;;;19.90;59.80;;;;;;4952213;28;95245;-68
2022/05/08 02:09:51;;;;;;;70.47;54.30;;;19.90;59.80;;;;;;4942597;28;96605;-68
2022/05/08 02:12:17;;;;;;;68.22;54.00;;;19.90;59.80;;;;;;4933946;28;95597;-68
2022/05/08 02:14:43;;;;;;;68.43;53.17;;;19.90;59.80;;;;;;4947180;28;96943;-67
2022/05/08 02:17:10;;;;;;;69.80;54.13;;;19.90;59.80;;;;;;4951368;28;96410;-68
2022/05/08 02:19:35;;;;;;;69.50;54.00;;;19.90;59.80;;;;;;4948422;28;95421;-68
2022/05/08 02:22:01;;;;;;;69.43;53.53;;;19.90;59.80;;;;;;4947869;28;99840;-68
2022/05/08 02:24:26;;;;;;;68.32;53.28;;;19.90;59.90;;;;;;4941141;28;94891;-68
2022/05/08 02:26:52;;;;;;;67.85;53.67;;;19.90;59.80;;;;;;4947576;28;94777;-67
2022/05/08 02:29:18;;;;;;;71.35;54.72;;;19.90;59.80;;;;;;4950005;28;97400;-68
2022/05/08 02:31:44;;;;;;;68.35;54.05;;;19.80;59.70;;;;;;4947367;28;96338;-67
2022/05/08 02:34:10;;;;;;;70.00;53.85;;;19.80;59.70;;;;;;4941714;28;94741;-68
2022/05/08 02:36:35;;;;;;;70.90;53.90;;;19.80;59.70;;;;;;4951582;28;95135;-68
2022/05/08 02:39:01;;;;;;;68.47;53.67;;;19.80;59.60;;;;;;4952048;28;97152;-68
2022/05/08 02:41:27;;;;;;;70.15;53.72;;;19.80;59.70;;;;;;4931372;28;97116;-67
2022/05/08 02:43:53;;;;;;;68.97;53.90;;;19.80;59.80;;;;;;4946852;28;97401;-68
2022/05/08 02:46:19;;;;;;;68.55;53.85;;;19.80;59.80;;;;;;4948416;28;95488;-68
2022/05/08 02:48:44;;;;;;;68.70;54.00;;;19.80;59.80;;;;;;4944451;28;98718;-67
2022/05/08 02:51:10;;;;;;;67.63;53.20;;;19.80;59.70;;;;;;4943581;28;95726;-67
2022/05/08 02:53:35;;;;;;;67.93;53.47;;;19.80;59.70;;;;;;4949084;28;96324;-68
2022/05/08 02:58:45;;;;;;;68.63;53.20;;;19.80;59.70;;;;;;4950713;28;95300;-67
2022/05/08 03:01:11;;;;;;;67.45;53.17;;;19.80;59.80;;;;;;4946114;28;95957;-68
2022/05/08 03:03:37;;;;;;;67.55;52.88;;;19.80;59.70;;;;;;4947858;28;96035;-67
2022/05/08 03:06:04;;;;;;;67.15;52.65;;;19.80;59.70;;;;;;4942646;28;97633;-67
2022/05/08 03:08:30;;;;;;;67.55;52.83;;;19.80;59.80;;;;;;4946025;28;97611;-68
2022/05/08 03:13:41;;;;;;;66.60;52.63;;;19.70;59.60;;;;;;4941779;28;95754;-68
2022/05/08 03:16:09;;;;;;;67.18;52.58;;;19.80;59.80;;;;;;4947634;28;95280;-68
2022/05/08 03:18:36;;;;;;;66.47;52.45;;;19.70;59.50;;;;;;4944753;28;95226;-68
2022/05/08 03:21:02;;;;;;;67.38;52.75;;;19.70;59.60;;;;;;4944155;28;98355;-68
2022/05/08 03:23:28;;;;;;;66.57;52.50;;;19.70;59.70;;;;;;4951687;28;94960;-68
2022/05/08 03:25:54;;;;;;;66.85;52.75;;;19.70;59.70;;;;;;4943783;28;96012;-67
2022/05/08 03:28:19;;;;;;;67.07;52.22;;;19.70;59.70;;;;;;4945139;28;96295;-68
2022/05/08 03:30:45;;;;;;;67.90;52.97;;;19.80;59.60;;;;;;4943362;28;96282;-68
2022/05/08 03:33:12;;;;;;;67.30;52.20;;;19.70;59.50;;;;;;4946414;28;94727;-68
2022/05/08 03:35:38;;;;;;;66.85;52.55;;;19.70;59.60;;;;;;4944783;28;94701;-67
2022/05/08 03:38:05;;;;;;;68.70;52.95;;;19.70;59.40;;;;;;4947187;28;100495;-68
2022/05/08 03:40:35;;;;;;;66.75;52.78;;;19.70;59.40;;;;;;4933948;28;95880;-67
2022/05/08 03:43:02;;;;;;;67.32;52.70;;;19.70;59.50;;;;;;4937834;28;95532;-68
2022/05/08 03:45:28;;;;;;;67.07;52.88;;;19.70;59.50;;;;;;4951204;28;96336;-67
2022/05/08 03:47:55;;;;;;;66.55;52.42;;;19.70;59.60;;;;;;4949118;28;96268;-68
2022/05/08 03:50:21;;;;;;;67.25;52.33;;;19.70;59.50;;;;;;4948477;28;95007;-68
2022/05/08 03:52:47;;;;;;;66.38;51.90;;;19.70;59.40;;;;;;4942830;28;102305;-68
2022/05/08 03:55:15;;;;;;;67.47;52.67;;;19.70;59.50;;;;;;4947393;28;95331;-67
2022/05/08 03:57:41;;;;;;;67.80;53.05;;;19.70;59.50;;;;;;4947486;28;101569;-68
2022/05/08 04:00:07;;;;;;;67.20;52.40;;;19.70;59.60;;;;;;4938740;28;95186;-67
2022/05/08 04:02:33;;;;;;;66.80;52.72;;;19.60;59.40;;;;;;4941431;28;96701;-67
2022/05/08 04:05:00;;;;;;;66.22;51.78;;;19.70;59.50;;;;;;4944727;28;98332;-67
2022/05/08 04:07:26;;;;;;;66.72;51.70;;;19.70;59.60;;;;;;4944736;28;95276;-67
2022/05/08 04:09:52;;;;;;;65.45;51.80;;;19.70;59.60;;;;;;4943683;28;98210;-68
2022/05/08 04:12:17;;;;;;;66.97;52.03;;;19.70;59.50;;;;;;4933275;28;97319;-68
2022/05/08 04:14:43;;;;;;;66.10;51.30;;;19.60;59.50;;;;;;4943175;28;94731;-67
2022/05/08 04:17:09;;;;;;;65.57;52.15;;;19.60;59.60;;;;;;4941355;28;99768;-68
2022/05/08 04:19:34;;;;;;;66.63;52.08;;;19.60;59.50;;;;;;4952248;28;95654;-67
2022/05/08 04:24:44;;;;;;;65.50;51.63;;;19.60;59.40;;;;;;4943251;28;95001;-67
2022/05/08 04:27:10;;;;;;;66.25;52.13;;;19.60;59.50;;;;;;4947619;28;98165;-68
2022/05/08 04:29:36;;;;;;;66.15;51.88;;;19.60;59.40;;;;;;4944337;28;97555;-69
2022/05/08 04:32:03;;;;;;;66.72;51.70;;;19.70;60.00;;;;;;4937739;28;95342;-68
2022/05/08 04:34:28;;;;;;;65.60;51.33;;;19.60;59.30;;;;;;4943606;28;94125;-67
2022/05/08 04:36:54;;;;;;;67.05;51.67;;;19.60;59.30;;;;;;4939935;28;95221;-68
2022/05/08 04:39:20;;;;;;;66.32;51.83;;;19.60;59.30;;;;;;4950284;28;95045;-67
2022/05/08 04:41:46;;;;;;;66.10;51.80;;;19.60;59.50;;;;;;4923104;28;97152;-68
2022/05/08 04:44:12;;;;;;;66.07;51.80;;;19.60;59.30;;;;;;4939577;28;97904;-67
2022/05/08 04:46:37;;;;;;;65.28;51.53;;;19.60;59.30;;;;;;4939518;28;95954;-67
2022/05/08 04:49:03;;;;;;;65.55;51.72;;;19.60;59.40;;;;;;4945604;28;96848;-68
2022/05/08 04:51:29;;;;;;;66.32;51.83;;;19.60;59.40;;;;;;4943537;28;95282;-67
2022/05/08 04:53:55;;;;;;;65.82;51.65;;;19.60;59.30;;;;;;4942992;28;97611;-67
2022/05/08 04:56:21;;;;;;;65.88;51.53;;;19.60;59.30;;;;;;4942127;28;98528;-66
2022/05/08 04:58:47;;;;;;;66.55;52.10;;;19.60;59.30;;;;;;4944315;28;95804;-67
2022/05/08 05:01:13;;;;;;;66.43;51.85;;;19.60;59.20;;;;;;4941157;28;94870;-67
2022/05/08 05:03:39;;;;;;;65.63;51.60;;;19.60;59.20;;;;;;4945216;28;95121;-67
2022/05/08 05:06:05;;;;;;;64.88;51.40;;;19.60;59.10;;;;;;4945813;28;99133;-67
2022/05/08 05:08:30;;;;;;;65.30;51.45;;;19.60;59.10;;;;;;4947875;28;95572;-68
2022/05/08 05:10:56;;;;;;;65.88;51.72;;;19.60;59.20;;;;;;4943138;28;94930;-67
2022/05/08 05:13:22;;;;;;;65.43;51.53;;;19.60;59.20;;;;;;4933542;28;96193;-67
2022/05/08 05:15:47;;;;;;;65.95;51.83;;;19.60;59.20;;;;;;4944846;28;97301;-68
2022/05/08 05:18:13;;;;;;;66.45;51.63;;;19.70;59.30;;;;;;4952026;28;97438;-68
2022/05/08 05:20:39;;;;;;;65.75;51.33;;;19.70;59.20;;;;;;4964461;28;95129;-67
2022/05/08 05:23:05;;;;;;;65.60;51.53;;;19.60;59.20;;;;;;4946719;28;95018;-67
2022/05/08 05:25:31;;;;;;;65.55;51.65;;;19.70;59.30;;;;;;4942720;28;97998;-67
2022/05/08 05:27:57;;;;;;;66.45;51.88;;;19.60;59.10;;;;;;4948360;28;95232;-68
2022/05/08 05:30:23;;;;;;;66.35;51.65;;;19.70;59.20;;;;;;4944562;28;97713;-67
2022/05/08 05:32:49;;;;;;;66.43;52.03;;;19.70;59.10;;;;;;4937411;28;94783;-66
2022/05/08 05:35:14;;;;;;;65.03;51.28;;;19.70;59.00;;;;;;4945644;28;96368;-66
2022/05/08 05:37:40;;;;;;;65.13;51.40;;;19.70;59.20;;;;;;4947064;28;96370;-67
2022/05/08 05:40:07;;;;;;;65.07;51.22;;;19.70;59.20;;;;;;4937602;28;95707;-67
2022/05/08 05:42:33;;;;;;;65.53;51.38;;;19.70;59.40;;;;;;4929054;28;99581;-70
2022/05/08 05:44:58;;;;;;;64.80;51.13;;;19.70;59.10;;;;;;4936239;28;95276;-70
2022/05/08 05:50:09;;;;;;;65.57;51.38;;;19.70;59.30;;;;;;4942329;28;95120;-69
2022/05/08 05:52:36;;;;;;;64.88;50.78;;;19.70;59.10;;;;;;4942256;28;95122;-69
2022/05/08 05:55:04;;;;;;;67.07;51.28;;;19.70;59.30;;;;;;4929713;28;98303;-69
2022/05/08 05:57:30;;;;;;;65.43;51.30;;;19.70;59.30;;;;;;4934901;28;101399;-69
2022/05/08 05:59:56;;;;;;;65.95;51.65;;;19.70;59.40;;;;;;4937471;28;96820;-71
2022/05/08 06:02:22;;;;;;;66.78;51.53;;;19.70;59.30;;;;;;4936549;28;95577;-72
2022/05/08 06:04:47;;;;;;;66.60;51.72;;;19.70;59.20;;;;;;4890150;28;97002;-69
2022/05/08 06:07:13;;;;;;;65.88;51.33;;;19.80;59.30;;;;;;4934608;28;96724;-69
2022/05/08 06:09:39;;;;;;;66.85;51.63;;;19.70;59.20;;;;;;4927317;28;96120;-70
2022/05/08 06:12:05;;;;;;;67.15;51.38;;;19.80;59.30;;;;;;4936686;28;95330;-68
2022/05/08 06:14:31;;;;;;;67.43;51.60;;;19.80;59.30;;;;;;4929039;28;95613;-68
2022/05/08 06:16:57;;;;;;;67.10;51.75;;;19.80;59.30;;;;;;4940756;28;95200;-68
2022/05/08 06:19:23;;;;;;;67.82;51.78;;;19.80;59.30;;;;;;4930890;28;96438;-67
2022/05/08 06:21:49;;;;;;;67.60;51.92;;;19.80;59.30;;;;;;4931320;28;95382;-69
2022/05/08 06:24:14;;;;;;;67.03;51.92;;;19.80;59.30;;;;;;4932401;28;96255;-68
2022/05/08 06:26:40;;;;;;;67.75;52.03;;;19.80;59.30;;;;;;4931305;28;98914;-70
2022/05/08 06:29:06;;;;;;;70.97;52.55;;;19.80;59.40;;;;;;4940550;28;95139;-70
2022/05/08 06:31:31;;;;;;;81.22;54.00;;;19.90;59.80;;;;;;4926203;28;99526;-71
2022/05/08 06:33:57;;;;;;;76.88;53.33;;;19.90;60.00;;;;;;4932793;28;95542;-69
2022/05/08 06:36:25;;;;;;;75.68;54.20;;;19.90;60.00;;;;;;4940619;28;94858;-70
2022/05/08 06:38:51;;;;;;;71.20;53.28;;;19.90;60.00;;;;;;4935345;28;96906;-69
2022/05/08 06:41:17;;;;;;;74.47;53.17;;;19.90;60.00;;;;;;4931209;28;96196;-69
2022/05/08 06:43:44;;;;;;;70.53;53.55;;;19.90;59.90;;;;;;4926117;28;99017;-68
2022/05/08 06:46:10;;;;;;;74.00;53.22;;;19.90;59.90;;;;;;4929178;28;99911;-69
2022/05/08 06:48:36;;;;;;;74.65;53.17;;;19.90;59.90;;;;;;4927860;28;95164;-72
2022/05/08 06:51:03;;;;;;;75.90;53.97;;;19.90;59.80;;;;;;4937959;28;96630;-69
2022/05/08 06:53:30;;;;;;;73.63;53.50;;;19.90;60.00;;;;;;4929529;28;96579;-69
2022/05/08 06:55:56;;;;;;;73.32;53.53;;;19.90;60.00;;;;;;4932392;28;96717;-70
2022/05/08 06:58:21;;;;;;;74.70;53.75;;;20.00;60.10;;;;;;4934782;28;97913;-70
2022/05/08 07:03:32;;;;;;;77.57;54.50;;;20.00;60.30;;;;;;4940609;28;96005;-69
2022/05/08 07:06:00;;;;;;;76.07;54.03;;;20.00;60.20;;;;;;4936662;28;95943;-69
2022/05/08 07:08:26;;;;;;;75.32;53.85;;;20.00;60.00;;;;;;4940603;28;99034;-70
2022/05/08 07:10:51;;;;;;;74.78;53.65;;;20.10;59.80;;;;;;4938158;28;97086;-69
2022/05/08 07:13:17;;;;;;;74.63;53.88;;;20.10;59.70;;;;;;4930129;28;96149;-70
2022/05/08 07:15:43;;;;;;;73.53;54.17;;;20.10;59.80;;;;;;4937852;28;96137;-70
2022/05/08 07:18:08;;;;;;;73.80;53.78;;;20.10;59.50;;;;;;4939433;28;95269;-70
2022/05/08 07:20:34;;;;;;;72.43;53.42;;;20.10;59.70;;;;;;4943156;28;97033;-70
2022/05/08 07:23:01;;;;;;;74.28;53.45;;;20.10;59.50;;;;;;4942086;28;95262;-69
2022/05/08 07:25:26;;;;;;;71.82;53.78;;;20.10;59.40;;;;;;4940153;28;95215;-69
2022/05/08 07:27:52;;;;;;;71.85;53.60;;;20.10;59.40;;;;;;4938082;28;95478;-69
2022/05/08 07:30:18;;;;;;;73.55;53.90;;;20.10;59.30;;;;;;4948493;28;96359;-69
2022/05/08 07:32:44;;;;;;;73.28;53.65;;;20.10;59.10;;;;;;4945805;28;98312;-70
2022/05/08 07:37:55;;;;;;;73.13;53.28;;;20.20;59.00;;;;;;4938729;28;100418;-70
2022/05/08 07:40:21;;;;;;;75.60;54.13;;;20.20;58.90;;;;;;4942912;28;95465;-69
2022/05/08 07:42:46;;;;;;;71.93;53.53;;;20.20;58.90;;;;;;4927267;28;100127;-69
2022/05/08 07:45:12;;;;;;;72.63;53.58;;;20.20;58.80;;;;;;4948497;28;95575;-69
2022/05/08 07:47:39;;;;;;;70.70;53.13;;;20.20;58.70;;;;;;4945082;28;95071;-69
2022/05/08 07:50:06;;;;;;;72.22;53.75;;;20.30;58.60;;;;;;4946926;28;99429;-70
2022/05/08 07:52:37;;;;;;;72.78;53.85;;;20.20;58.70;;;;;;4952499;28;97445;-70
2022/05/08 07:55:03;;;;;;;74.22;53.70;;;20.30;58.50;;;;;;4937839;28;96589;-70
2022/05/08 07:57:29;;;;;;;71.75;53.92;;;20.30;58.40;;;;;;4944644;28;98345;-69
2022/05/08 07:59:54;;;;;;;73.03;53.67;;;20.30;58.40;;;;;;4946668;28;98008;-70
2022/05/08 08:02:20;;;;;;;72.22;53.78;;;20.30;58.20;;;;;;4945818;28;98140;-70
2022/05/08 08:04:46;;;;;;;73.30;53.70;;;20.30;58.10;;;;;;4944789;28;98174;-70
2022/05/08 08:07:11;;;;;;;73.38;53.78;;;20.30;58.10;;;;;;4948853;28;95214;-70
2022/05/08 08:09:37;;;;;;;70.28;53.10;;;20.30;58.20;;;;;;4944989;28;95221;-69
2022/05/08 08:12:03;;;;;;;71.97;53.55;;;20.40;58.20;;;;;;4937694;28;95282;-69
2022/05/08 08:14:29;;;;;;;71.25;53.28;;;20.30;58.10;;;;;;4934420;28;95415;-70
2022/05/08 08:16:55;;;;;;;72.28;53.78;;;20.40;58.10;;;;;;4943548;28;103496;-70
2022/05/08 08:19:20;;;;;;;71.63;54.00;;;20.40;57.90;;;;;;4949965;28;98622;-70
2022/05/08 08:21:46;;;;;;;72.65;53.78;;;20.40;57.80;;;;;;4949315;28;96073;-70
2022/05/08 08:24:11;;;;;;;71.03;53.17;;;20.50;57.90;;;;;;4934450;28;98919;-69
2022/05/08 08:26:40;;;;;;;69.75;53.33;;;20.40;57.90;;;;;;4950185;28;97318;-69
2022/05/08 08:29:06;;;;;;;69.63;53.08;;;20.50;57.80;;;;;;4949168;28;94831;-70
2022/05/08 08:31:32;;;;;;;71.07;53.22;;;20.50;57.80;;;;;;4943560;28;96460;-70
2022/05/08 08:33:58;;;;;;;73.28;53.67;;;20.40;57.90;;;;;;4946322;28;98093;-70
2022/05/08 08:36:24;;;;;;;71.05;53.25;;;20.50;57.90;;;;;;4938272;28;95498;-69
2022/05/08 08:38:50;;;;;;;71.18;53.03;;;20.50;57.80;;;;;;4943058;28;94203;-69
2022/05/08 08:41:21;;;;;;;70.03;53.40;;;20.40;57.80;;;;;;4938134;28;95660;-69
2022/05/08 08:49:21;;;;;;;70.55;53.03;;;20.40;57.70;;;;;;4946198;28;94952;-70
2022/05/08 08:51:48;;;;;;;69.22;52.67;;;20.50;57.90;;;;;;4941397;28;98589;-70
2022/05/08 08:54:17;;;;;;;69.10;53.17;;;20.50;57.80;;;;;;4937086;28;96931;-69
2022/05/08 08:56:42;;;;;;;69.07;52.72;;;20.50;57.80;;;;;;4940390;28;96103;-70
2022/05/08 08:59:09;;;;;;;71.43;52.95;;;20.50;57.70;;;;;;4947089;28;97505;-69
2022/05/08 09:01:45;;;;;;;70.93;52.85;;;20.40;57.70;;;;;;4946174;28;95215;-70
2022/05/08 09:04:15;;;;;;;69.63;52.90;;;20.50;57.70;;;;;;4942977;28;95353;-70
2022/05/08 09:06:42;;;;;;;69.97;53.30;;;20.50;57.60;;;;;;4947886;28;94961;-70
2022/05/08 09:09:24;;;;;;;70.43;53.03;;;20.50;57.70;;;;;;4947357;28;96453;-70
2022/05/08 09:11:51;;;;;;;71.97;53.30;;;20.50;58.20;;;;;;4944792;28;98947;-70
2022/05/08 09:14:37;;;;;;;72.20;53.15;;;20.50;57.70;;;;;;4925615;28;98577;-70
2022/05/08 09:17:05;;;;;;;71.75;53.33;;;20.50;57.60;;;;;;4939456;28;95756;-70
2022/05/08 09:19:36;;;;;;;70.38;53.13;;;20.60;57.40;;;;;;4947315;28;95241;-70
2022/05/08 09:22:03;;;;;;;71.60;53.00;;;20.60;57.40;;;;;;4942457;28;95948;-70
2022/05/08 09:24:30;;;;;;;69.53;52.78;;;20.60;57.40;;;;;;4944366;28;96446;-71
2022/05/08 09:27:12;;;;;;;70.88;53.45;;;20.60;57.40;;;;;;4949152;28;100189;-70
2022/05/08 09:29:38;;;;;;;70.50;53.05;;;20.60;57.30;;;;;;4947227;28;96146;-69
2022/05/08 09:32:04;;;;;;;71.03;53.03;;;20.60;57.40;;;;;;4944485;28;96698;-70
2022/05/08 09:34:30;;;;;;;70.70;53.38;;;20.60;57.50;;;;;;4943364;28;101380;-69
2022/05/08 09:37:08;;;;;;;73.43;53.78;;;20.60;58.10;;;;;;4937957;28;97979;-70
2022/05/08 09:39:34;;;;;;;69.40;53.10;;;20.60;57.20;;;;;;4937189;28;96299;-70
2022/05/08 09:42:00;;;;;;;69.68;52.90;;;20.60;57.40;;;;;;4944081;28;97239;-70
2022/05/08 09:44:25;;;;;;;69.70;52.38;;;20.60;57.50;;;;;;4930998;28;96181;-70
2022/05/08 09:46:51;;;;;;;68.45;52.92;;;20.60;57.50;;;;;;4944566;28;98273;-70
2022/05/08 09:49:21;;;;;;;69.05;52.70;;;20.60;57.50;;;;;;4939767;28;96397;-70
2022/05/08 09:51:48;;;;;;;68.93;52.70;;;20.60;57.50;;;;;;4954544;28;100877;-70
2022/05/08 09:54:18;;;;;;;69.78;53.03;;;20.60;57.50;;;;;;4947791;28;97304;-70
2022/05/08 09:56:45;;;;;;;70.60;52.92;;;20.60;57.60;;;;;;4947207;28;95326;-69
2022/05/08 09:59:12;;;;;;;69.32;52.88;;;20.60;57.50;;;;;;4951101;28;95164;-70
2022/05/08 10:01:42;;;;;;;68.75;52.75;;;20.60;58.10;;;;;;4943364;28;96076;-70
2022/05/08 10:04:07;;;;;;;70.38;52.95;;;20.60;57.50;;;;;;4950453;28;95705;-70
2022/05/08 10:06:36;;;;;;;67.50;52.22;;;20.60;57.30;;;;;;4945697;28;98739;-70
2022/05/08 10:14:33;;;;;;;69.72;52.47;;;20.60;57.50;;;;;;4931882;28;95287;-70
2022/05/08 10:17:03;;;;;;;69.57;52.97;;;20.60;57.60;;;;;;4934510;28;96522;-70
2022/05/08 10:19:28;;;;;;;68.90;52.75;;;20.60;57.50;;;;;;4942706;28;94695;-70
2022/05/08 10:21:57;;;;;;;69.45;52.90;;;20.60;57.60;;;;;;4950857;28;98241;-70
2022/05/08 10:24:51;;;;;;;69.63;52.72;;;20.60;57.60;;;;;;4946041;28;98067;-70
2022/05/08 10:27:31;;;;;;;68.32;52.58;;;20.60;57.60;;;;;;4947507;28;95969;-70
2022/05/08 10:29:56;;;;;;;69.82;52.72;;;20.60;57.50;;;;;;4946515;28;95801;-70
2022/05/08 10:32:42;;;;;;;70.25;52.85;;;20.60;57.50;;;;;;4947622;28;95105;-70
2022/05/08 10:35:10;;;;;;;68.18;52.45;;;20.60;57.50;;;;;;4944426;28;97907;-70
2022/05/08 10:37:36;;;;;;;69.30;52.42;;;20.60;57.40;;;;;;4953744;28;95305;-70
2022/05/08 10:40:03;;;;;;;69.15;52.65;;;20.70;57.40;;;;;;4945561;28;97965;-70
2022/05/08 10:42:33;;;;;;;69.47;52.35;;;20.60;57.40;;;;;;4952777;28;95663;-70
2022/05/08 10:45:00;;;;;;;68.87;52.30;;;20.60;57.40;;;;;;4934404;28;96349;-70
2022/05/08 10:47:32;;;;;;;69.60;52.60;;;20.60;57.30;;;;;;4896567;28;96766;-70
2022/05/08 10:50:02;;;;;;;68.75;52.15;;;20.70;57.50;;;;;;4951257;28;95086;-70
2022/05/08 10:52:29;;;;;;;69.47;52.33;;;20.60;57.40;;;;;;4947601;28;101777;-70
2022/05/08 10:54:59;;;;;;;67.72;52.17;;;20.70;57.50;;;;;;4943475;28;95945;-70
2022/05/08 10:57:32;;;;;;;68.60;52.78;;;20.70;57.40;;;;;;4947439;28;94976;-70
2022/05/08 10:59:59;;;;;;;68.13;52.22;;;20.70;57.30;;;;;;4947576;28;102710;-70
2022/05/08 11:02:43;;;;;;;69.07;52.35;;;20.70;57.40;;;;;;4946117;28;95437;-70
2022/05/08 11:05:16;;;;;;;68.60;52.22;;;20.70;57.40;;;;;;4948384;28;100134;-71
2022/05/08 11:07:56;;;;;;;69.82;52.50;;;20.60;57.50;;;;;;4950372;28;95092;-69
2022/05/08 11:10:24;;;;;;;69.57;52.20;;;20.70;57.50;;;;;;4948341;28;94839;-70
2022/05/08 11:13:10;;;;;;;69.47;52.58;;;20.70;57.50;;;;;;4946509;28;95736;-70
2022/05/08 11:15:46;;;;;;;69.65;52.42;;;20.70;57.50;;;;;;4938354;28;95965;-70
2022/05/08 11:18:24;;;;;;;68.65;52.33;;;20.70;57.50;;;;;;4944150;28;96319;-70
2022/05/08 11:20:59;;;;;;;68.13;52.30;;;20.70;57.50;;;;;;4941564;28;95231;-70
2022/05/08 11:23:45;;;;;;;68.55;52.28;;;20.70;57.50;;;;;;4946521;28;97250;-70
2022/05/08 11:26:12;;;;;;;68.35;52.05;;;20.70;57.40;;;;;;4937131;28;95337;-70
2022/05/08 11:28:49;;;;;;;69.60;52.13;;;20.70;57.40;;;;;;4946863;28;95151;-70
2022/05/08 11:31:19;;;;;;;69.30;52.60;;;20.70;57.40;;;;;;4945693;28;99327;-70
2022/05/08 11:36:32;;;;;;;69.25;52.13;;;20.70;57.40;;;;;;4939890;28;95660;-70
2022/05/08 11:39:04;;;;;;;68.40;51.97;;;20.70;57.40;;;;;;4943368;28;94994;-70
2022/05/08 11:41:32;;;;;;;68.43;52.17;;;20.70;57.40;;;;;;4936172;28;95079;-70
2022/05/08 11:44:14;;;;;;;70.07;52.17;;;20.80;57.40;;;;;;4931595;28;96415;-70
2022/05/08 11:46:55;;;;;;;69.07;52.08;;;20.70;57.40;;;;;;4936280;28;98299;-70
2022/05/08 11:49:29;;;;;;;68.20;52.30;;;20.80;57.30;;;;;;4947895;28;96336;-70
2022/05/08 11:52:03;;;;;;;68.45;52.28;;;20.80;57.40;;;;;;4954723;28;95519;-70
2022/05/08 11:54:32;;;;;;;69.30;52.15;;;20.80;57.30;;;;;;4948118;28;95220;-69
2022/05/08 11:57:21;;;;;;;68.10;52.10;;;20.80;57.30;;;;;;4945243;28;95234;-70
2022/05/08 11:59:51;;;;;;;68.95;51.90;;;20.80;57.20;;;;;;4944800;28;94779;-70
2022/05/08 12:02:18;;;;;;;69.03;52.08;;;20.80;57.20;;;;;;4944999;28;96328;-70
2022/05/08 12:04:57;;;;;;;68.80;52.15;;;20.80;57.20;;;;;;4947283;28;95763;-70
2022/05/08 12:07:23;;;;;;;69.03;52.13;;;20.80;57.20;;;;;;4939441;28;95457;-70
2022/05/08 12:09:52;;;;;;;68.32;52.15;;;20.90;57.20;;;;;;4945043;28;96258;-70
2022/05/08 12:12:28;;;;;;;69.25;52.35;;;20.90;57.20;;;;;;4945792;28;94678;-70
2022/05/08 12:15:09;;;;;;;68.25;51.85;;;20.80;57.20;;;;;;4927128;28;96112;-70
2022/05/08 12:17:35;;;;;;;;;;;20.80;57.40;;;;;;4942952;28;95538;-70
2022/05/08 12:20:00;;;;;;;69.72;52.03;;;20.90;57.20;;;;;;4952432;28;96720;-70
2022/05/08 12:22:30;;;;;;;68.63;52.20;;;20.80;57.10;;;;;;4950967;28;95294;-69
2022/05/08 12:25:00;;;;;;;68.75;52.13;;;20.90;57.10;;;;;;4941351;28;95152;-70
2022/05/08 12:27:26;;;;;;;69.43;51.88;;;20.90;57.10;;;;;;4940606;28;94298;-70
2022/05/08 12:29:53;;;;;;;67.80;51.67;;;20.90;57.10;;;;;;4952953;28;95165;-70
2022/05/08 12:32:22;;;;;;;69.38;52.28;;;20.90;57.10;;;;;;4945574;28;94858;-70
2022/05/08 12:34:48;;;;;;;69.18;51.80;;;20.90;57.10;;;;;;4943648;28;97301;-70
2022/05/08 12:37:15;;;;;;;69.13;52.15;;;20.90;57.10;;;;;;4945011;28;95599;-69
2022/05/08 12:39:42;;;;;;;69.30;51.88;;;20.90;57.10;;;;;;4944873;28;95475;-70
2022/05/08 12:42:09;;;;;;;69.25;52.05;;;20.90;57.10;;;;;;4944016;28;95606;-70
2022/05/08 12:44:36;;;;;;;69.65;52.35;;;20.90;57.10;;;;;;4935408;28;96136;-70
2022/05/08 12:47:04;;;;;;;69.47;51.85;;;21.00;57.10;;;;;;4942154;28;94646;-70
2022/05/08 12:49:29;;;;;;;68.22;51.88;;;21.00;57.10;;;;;;4947798;28;97263;-70
2022/05/08 12:51:55;;;;;;;69.10;51.95;;;21.00;57.10;;;;;;4918727;28;94351;-70
2022/05/08 12:54:20;;;;;;;69.13;51.83;;;21.00;57.10;;;;;;4904467;28;96729;-70
2022/05/08 12:56:46;;;;;;;68.85;52.03;;;21.00;57.10;;;;;;4941958;28;95711;-70
2022/05/08 13:01:56;;;;;;;68.10;52.20;;;21.00;57.00;;;;;;4934102;28;97620;-70
2022/05/08 13:04:23;;;;;;;68.50;52.05;;;21.00;57.60;;;;;;4941814;28;96742;-70